Etusivu
METAR-TAF:

METAR-TAF

Lentoasemat :

Eureka, Nunavut, Kanada

Leveyspiiri: 79-59N, Pituuspiiri: 085-56W, korkeus merenpinnasta: 10 m

Tämänhetkinen sää

Tämä raportti tehtiin 32 minuuttia sitten, kello 06.00 UTC
Tuuli 2 kn eri suunnista
Lämpötila -4°C
Kosteus 80%
Ilmanpaine 1017 hPa
Näkyvyys: 24.1 km
Muutamia pilviä 14000 ft:n korkeudessa

METAR: CWEU 010600Z VRB02KT 15SM FEW140 M04/M07 A3003 RMK AC1 AC TR SLP182

Aika: 01:32 (06:32 UTC)


TAF: puuttuu

Säähavainnot ja -ennusteet yli 4000 lentoasemalta (METAR- ja TAF-raportit).

Käytössä olevat sääasemat on merkitty karttaan keltaisilla ja punaisilla pisteillä.

Aseta hiiri pisteen päälle nähdäksesi sääaseman nimen.

Klikkaa sitten nähdäksesi säähavainnot ja -ennusteet.

Kartan vaihtaminen: klikkaa mustalla rastilla varustettuja vihreitä pisteitä, niin voit zoomata sisään; viivalla varustettua vihreää pistettä, niin voit zoomata ulos tai vihreitä nuolia, niin pääset viereisille kartoille.


METAR-TAF: